Time;durP1;ratioP1;P1;durP2;ratioP2;P2;SDS_P1;SDS_P2;PMS_P1;PMS_P2;Temp;Humidity;BMP_temperature;BMP_pressure;BME280_temperature;BME280_humidity;BME280_pressure;Samples;Min_cycle;Max_cycle;Signal;HPM_P1;HPM_P2
2023/10/18 00:00:17;;;;;;;4.53;3.72;;;9.60;99.90;;;;;;5022665;28;20203;-67
2023/10/18 00:02:45;;;;;;;3.95;3.65;;;9.60;99.90;;;;;;5022611;28;20560;-70
2023/10/18 00:05:12;;;;;;;3.83;3.53;;;9.60;99.90;;;;;;5020610;28;20214;-70
2023/10/18 00:07:40;;;;;;;4.28;3.88;;;9.50;99.90;;;;;;5021559;28;20328;-70
2023/10/18 00:10:11;;;;;;;3.83;3.53;;;9.50;99.90;;;;;;5018237;28;20467;-70
2023/10/18 00:12:39;;;;;;;4.05;3.65;;;9.50;99.90;;;;;;5014858;28;20200;-67
2023/10/18 00:15:08;;;;;;;3.72;3.38;;;9.50;99.90;;;;;;5018331;28;20200;-70
2023/10/18 00:17:36;;;;;;;4.35;3.80;;;9.40;99.90;;;;;;5021231;28;20219;-69
2023/10/18 00:20:08;;;;;;;4.03;3.72;;;9.40;99.90;;;;;;5021093;28;20206;-71
2023/10/18 00:22:35;;;;;;;4.07;3.67;;;9.40;99.90;;;;;;5018123;28;20838;-70
2023/10/18 00:25:03;;;;;;;4.00;3.65;;;9.30;99.90;;;;;;5017942;28;20349;-70
2023/10/18 00:27:31;;;;;;;5.18;4.68;;;9.30;99.90;;;;;;5018321;28;20231;-70
2023/10/18 00:29:58;;;;;;;3.80;3.50;;;9.30;99.90;;;;;;5016376;28;20215;-67
2023/10/18 00:32:26;;;;;;;4.38;3.78;;;9.30;99.90;;;;;;5017683;28;20287;-68
2023/10/18 00:34:54;;;;;;;3.78;3.40;;;9.30;99.90;;;;;;5017176;28;20290;-70
2023/10/18 00:37:25;;;;;;;4.45;4.05;;;9.30;99.90;;;;;;5015773;28;20228;-69
2023/10/18 00:39:52;;;;;;;3.85;3.55;;;9.30;99.90;;;;;;5016115;28;20704;-67
2023/10/18 00:42:28;;;;;;;4.68;3.78;;;9.30;99.90;;;;;;5018791;28;20212;-69
2023/10/18 00:45:01;;;;;;;4.50;4.10;;;9.30;99.90;;;;;;5018082;28;20622;-68
2023/10/18 00:47:30;;;;;;;4.65;3.78;;;9.30;99.90;;;;;;5019764;28;20494;-69
2023/10/18 00:49:58;;;;;;;4.35;4.05;;;9.30;99.90;;;;;;5018258;28;20715;-69
2023/10/18 00:52:28;;;;;;;3.97;3.67;;;9.30;99.90;;;;;;5015432;28;20267;-67
2023/10/18 00:54:55;;;;;;;3.58;3.28;;;9.20;99.90;;;;;;5017785;28;20208;-68
2023/10/18 00:57:25;;;;;;;3.67;3.38;;;9.20;99.90;;;;;;5015738;28;20250;-69
2023/10/18 00:59:55;;;;;;;4.68;3.75;;;9.20;99.90;;;;;;5018757;28;20206;-68
2023/10/18 01:02:28;;;;;;;4.05;3.75;;;9.20;99.90;;;;;;5015852;28;20868;-69
2023/10/18 01:04:55;;;;;;;3.92;3.63;;;9.20;99.90;;;;;;5016871;28;20227;-66
2023/10/18 01:07:24;;;;;;;3.60;3.30;;;9.20;99.90;;;;;;5015925;28;20445;-68
2023/10/18 01:09:53;;;;;;;3.83;3.53;;;9.10;99.90;;;;;;5018028;28;20222;-68
2023/10/18 01:12:23;;;;;;;4.80;3.53;;;9.10;99.90;;;;;;5017475;28;20215;-68
2023/10/18 01:14:50;;;;;;;3.97;3.67;;;9.10;99.90;;;;;;5017380;28;20203;-68
2023/10/18 01:17:19;;;;;;;4.20;3.80;;;9.10;99.90;;;;;;5017394;28;20932;-69
2023/10/18 01:19:49;;;;;;;4.65;3.83;;;9.10;99.90;;;;;;5019807;28;20207;-68
2023/10/18 01:22:17;;;;;;;4.00;3.70;;;9.00;99.90;;;;;;5018839;28;20214;-69
2023/10/18 01:24:46;;;;;;;3.70;3.40;;;9.00;99.90;;;;;;5022128;28;20249;-68
2023/10/18 01:27:13;;;;;;;4.47;3.17;;;9.00;99.90;;;;;;5016659;28;20322;-66
2023/10/18 01:29:41;;;;;;;4.20;3.90;;;9.00;99.90;;;;;;5022157;28;20266;-67
2023/10/18 01:32:08;;;;;;;3.97;3.60;;;8.90;99.90;;;;;;5018772;28;20207;-70
2023/10/18 01:34:36;;;;;;;3.75;3.45;;;8.90;99.90;;;;;;5019094;28;20227;-69
2023/10/18 01:37:05;;;;;;;4.82;4.35;;;9.00;99.90;;;;;;5016876;28;20232;-68
2023/10/18 01:39:32;;;;;;;4.63;4.22;;;8.90;99.90;;;;;;5018987;28;20201;-69
2023/10/18 01:42:01;;;;;;;4.00;3.70;;;8.90;99.90;;;;;;5018923;28;20211;-67
2023/10/18 01:44:33;;;;;;;4.00;3.70;;;8.80;99.90;;;;;;5017067;28;20228;-67
2023/10/18 01:47:06;;;;;;;3.90;3.60;;;8.80;99.90;;;;;;5015571;28;20212;-69
2023/10/18 01:49:38;;;;;;;4.20;3.83;;;8.80;99.90;;;;;;5017125;28;20620;-70
2023/10/18 01:52:06;;;;;;;3.97;3.67;;;8.70;99.90;;;;;;5016520;28;20199;-70
2023/10/18 01:54:34;;;;;;;4.30;3.88;;;8.80;99.90;;;;;;5015368;28;20204;-70
2023/10/18 01:57:03;;;;;;;3.83;3.53;;;8.70;99.90;;;;;;5018432;28;20203;-70
2023/10/18 01:59:30;;;;;;;3.60;3.30;;;8.70;99.90;;;;;;5014803;28;20218;-68
2023/10/18 02:01:58;;;;;;;4.63;3.63;;;8.70;99.90;;;;;;5015464;28;20296;-69
2023/10/18 02:04:26;;;;;;;4.32;4.03;;;8.70;99.90;;;;;;5013224;28;20251;-70
2023/10/18 02:06:57;;;;;;;4.03;3.72;;;8.70;99.90;;;;;;5015662;28;20219;-68
2023/10/18 02:09:32;;;;;;;3.80;3.50;;;8.70;99.90;;;;;;5016890;28;20281;-69
2023/10/18 02:12:01;;;;;;;3.92;3.63;;;8.60;99.90;;;;;;5016836;28;20207;-69
2023/10/18 02:14:29;;;;;;;3.75;3.45;;;8.60;99.90;;;;;;5016247;28;20281;-69
2023/10/18 02:16:56;;;;;;;4.43;4.03;;;8.60;99.90;;;;;;5018150;28;20207;-68
2023/10/18 02:19:24;;;;;;;4.78;4.28;;;8.60;99.90;;;;;;5015544;28;20208;-69
2023/10/18 02:21:52;;;;;;;3.97;3.58;;;8.50;99.90;;;;;;5015944;28;20287;-69
2023/10/18 02:24:20;;;;;;;3.70;3.40;;;8.50;99.90;;;;;;5014851;28;20333;-69
2023/10/18 02:26:54;;;;;;;4.03;3.67;;;8.50;99.90;;;;;;5015851;28;20211;-70
2023/10/18 02:29:22;;;;;;;4.10;3.70;;;8.40;99.90;;;;;;5014999;28;20213;-70
2023/10/18 02:31:52;;;;;;;4.00;3.70;;;8.40;99.90;;;;;;5015097;28;20270;-69
2023/10/18 02:34:20;;;;;;;4.63;4.28;;;8.40;99.90;;;;;;5014549;28;20203;-70
2023/10/18 02:36:51;;;;;;;4.60;4.20;;;8.30;99.90;;;;;;5019296;28;20223;-69
2023/10/18 02:39:23;;;;;;;5.15;3.90;;;8.30;99.90;;;;;;5021968;28;20832;-68
2023/10/18 02:41:51;;;;;;;4.63;4.22;;;8.30;99.90;;;;;;5029896;28;20205;-68
2023/10/18 02:44:24;;;;;;;4.13;3.83;;;8.30;99.90;;;;;;5021501;28;20195;-70
2023/10/18 02:46:55;;;;;;;4.63;4.22;;;8.30;99.90;;;;;;5021869;28;20253;-70
2023/10/18 02:49:27;;;;;;;4.80;4.30;;;8.30;99.90;;;;;;5022741;28;20317;-68
2023/10/18 02:51:56;;;;;;;4.38;3.97;;;8.30;99.90;;;;;;5023044;28;20226;-69
2023/10/18 02:54:24;;;;;;;5.07;4.38;;;8.30;99.90;;;;;;5021334;28;20211;-70
2023/10/18 02:56:53;;;;;;;4.60;4.20;;;8.20;99.90;;;;;;5021797;28;20297;-70
2023/10/18 02:59:24;;;;;;;4.40;4.07;;;8.20;99.90;;;;;;5020386;28;20795;-69
2023/10/18 03:01:54;;;;;;;4.63;4.22;;;8.20;99.90;;;;;;5023053;28;20214;-70
2023/10/18 03:04:22;;;;;;;4.07;3.78;;;8.20;99.90;;;;;;5020768;28;20219;-67
2023/10/18 03:06:51;;;;;;;4.65;4.25;;;8.20;99.90;;;;;;5023093;28;20208;-69
2023/10/18 03:09:38;;;;;;;4.28;3.88;;;8.20;99.90;;;;;;5021546;28;20207;-69
2023/10/18 03:12:13;;;;;;;4.40;4.00;;;8.20;99.90;;;;;;5023076;28;20202;-69
2023/10/18 03:14:41;;;;;;;4.03;3.72;;;8.20;99.90;;;;;;5022246;28;20199;-68
2023/10/18 03:17:19;;;;;;;4.20;3.90;;;8.10;99.90;;;;;;5021992;28;20242;-69
2023/10/18 03:19:49;;;;;;;4.32;3.97;;;8.10;99.90;;;;;;5023248;28;20295;-69
2023/10/18 03:22:19;;;;;;;5.55;3.88;;;8.10;99.90;;;;;;5022285;28;20708;-69
2023/10/18 03:24:47;;;;;;;4.13;3.83;;;8.10;99.90;;;;;;5023488;28;20598;-70
2023/10/18 03:27:15;;;;;;;4.32;3.95;;;8.10;99.90;;;;;;5020951;28;20363;-67
2023/10/18 03:29:45;;;;;;;3.97;3.67;;;8.10;99.90;;;;;;5020894;28;20269;-68
2023/10/18 03:32:15;;;;;;;4.38;4.07;;;8.10;99.90;;;;;;5021930;28;20310;-69
2023/10/18 03:34:42;;;;;;;4.65;4.25;;;8.10;99.90;;;;;;5023475;28;20196;-69
2023/10/18 03:37:18;;;;;;;5.32;4.55;;;8.10;99.90;;;;;;5019247;28;20252;-68
2023/10/18 03:39:47;;;;;;;4.25;3.95;;;8.10;99.90;;;;;;5023381;28;20195;-69
2023/10/18 03:42:26;;;;;;;4.45;4.10;;;8.00;99.90;;;;;;5020806;28;20260;-69
2023/10/18 03:44:53;;;;;;;4.38;4.00;;;8.00;99.90;;;;;;5020884;28;20203;-68
2023/10/18 03:47:25;;;;;;;4.68;4.28;;;8.10;99.90;;;;;;5021423;28;20230;-68
2023/10/18 03:49:53;;;;;;;4.43;4.03;;;8.10;99.90;;;;;;5019025;28;20294;-68
2023/10/18 03:52:21;;;;;;;4.22;3.83;;;8.10;99.90;;;;;;5020166;28;20301;-69
2023/10/18 03:55:04;;;;;;;3.40;3.20;;;8.10;99.90;;;;;;5022232;28;20258;-69
2023/10/18 03:57:37;;;;;;;3.53;3.22;;;8.10;99.90;;;;;;5026406;28;20242;-69
2023/10/18 04:00:28;;;;;;;3.63;3.33;;;8.10;99.90;;;;;;5023756;28;20791;-69
2023/10/18 04:02:59;;;;;;;3.90;3.60;;;8.20;99.90;;;;;;5022176;28;20200;-69
2023/10/18 04:05:37;;;;;;;3.42;3.15;;;8.20;99.90;;;;;;5021372;28;20219;-69
2023/10/18 04:08:06;;;;;;;4.10;3.70;;;8.20;99.90;;;;;;5022467;28;20230;-69
2023/10/18 04:10:35;;;;;;;3.70;3.50;;;8.10;99.90;;;;;;5018722;28;20212;-69
2023/10/18 04:13:03;;;;;;;3.67;3.40;;;8.10;99.90;;;;;;5022085;28;20215;-69
2023/10/18 04:15:37;;;;;;;3.30;3.03;;;8.10;99.90;;;;;;5021002;28;20196;-69
2023/10/18 04:18:12;;;;;;;3.90;3.60;;;8.10;99.90;;;;;;5020130;28;20724;-65
2023/10/18 04:20:43;;;;;;;3.53;3.33;;;8.10;99.90;;;;;;5020428;28;20203;-69
2023/10/18 04:23:18;;;;;;;4.80;3.55;;;8.10;99.90;;;;;;5021434;28;20907;-69
2023/10/18 04:25:57;;;;;;;3.75;3.45;;;8.00;99.90;;;;;;5019465;28;20928;-68
2023/10/18 04:28:24;;;;;;;3.58;3.28;;;8.00;99.90;;;;;;5019442;28;20227;-69
2023/10/18 04:30:52;;;;;;;4.07;3.58;;;8.00;99.90;;;;;;5021391;28;20206;-69
2023/10/18 04:33:28;;;;;;;3.83;3.53;;;8.00;99.90;;;;;;5018486;28;21157;-69
2023/10/18 04:35:55;;;;;;;3.63;3.33;;;8.00;99.90;;;;;;5019928;28;20223;-69
2023/10/18 04:38:23;;;;;;;4.63;3.58;;;7.90;99.90;;;;;;5019837;28;20248;-70
2023/10/18 04:40:55;;;;;;;3.60;3.30;;;7.90;99.90;;;;;;5021158;28;20569;-69
2023/10/18 04:43:27;;;;;;;3.75;3.45;;;7.90;99.90;;;;;;5020755;28;20207;-68
2023/10/18 04:45:59;;;;;;;3.60;3.40;;;7.90;99.90;;;;;;5022418;28;20387;-69
2023/10/18 04:48:59;;;;;;;3.70;3.40;;;7.90;99.90;;;;;;5020874;28;20320;-70
2023/10/18 04:51:28;;;;;;;4.15;3.75;;;7.80;99.90;;;;;;5019211;28;20196;-69
2023/10/18 04:53:57;;;;;;;3.90;3.60;;;7.80;99.90;;;;;;5019190;28;20226;-70
2023/10/18 04:56:31;;;;;;;3.35;3.15;;;7.80;99.90;;;;;;5019503;28;20202;-70
2023/10/18 04:59:06;;;;;;;4.28;3.90;;;7.80;99.90;;;;;;5018749;28;20215;-70
2023/10/18 05:01:35;;;;;;;3.55;3.35;;;7.70;99.90;;;;;;5019863;28;20249;-70
2023/10/18 05:06:46;;;;;;;3.60;3.30;;;7.70;99.90;;;;;;5019912;28;20224;-68
2023/10/18 05:09:14;;;;;;;3.65;3.35;;;7.70;99.90;;;;;;5018198;28;20211;-70
2023/10/18 05:11:50;;;;;;;3.88;3.53;;;7.70;99.90;;;;;;5023769;28;20203;-68
2023/10/18 05:14:35;;;;;;;4.20;3.90;;;7.70;99.90;;;;;;5019288;28;20203;-67
2023/10/18 05:17:04;;;;;;;3.47;3.28;;;7.70;99.90;;;;;;5021374;28;20208;-68
2023/10/18 05:19:37;;;;;;;3.92;3.63;;;7.70;99.90;;;;;;5016833;28;20235;-68
2023/10/18 05:22:05;;;;;;;3.35;3.15;;;7.70;99.90;;;;;;5021122;28;20223;-69
2023/10/18 05:24:36;;;;;;;3.40;3.20;;;7.70;99.90;;;;;;5022358;28;20286;-69
2023/10/18 05:27:05;;;;;;;3.45;3.15;;;7.70;99.90;;;;;;5020312;28;20299;-69
2023/10/18 05:29:42;;;;;;;3.40;3.10;;;7.70;99.90;;;;;;5018678;28;20294;-67
2023/10/18 05:32:09;;;;;;;3.63;3.33;;;7.70;99.90;;;;;;5021428;28;20209;-67
2023/10/18 05:34:51;;;;;;;3.63;3.42;;;7.70;99.90;;;;;;5020155;28;20600;-70
2023/10/18 05:37:19;;;;;;;4.07;3.78;;;7.70;99.90;;;;;;5018194;28;20234;-70
2023/10/18 05:42:35;;;;;;;3.92;3.63;;;7.70;99.90;;;;;;5019520;28;20206;-69
2023/10/18 05:45:03;;;;;;;4.75;3.42;;;7.70;99.90;;;;;;5019923;28;20218;-69
2023/10/18 05:47:31;;;;;;;4.28;3.88;;;7.70;99.90;;;;;;5019781;28;20247;-69
2023/10/18 05:50:04;;;;;;;3.60;3.30;;;7.70;99.90;;;;;;5021769;28;20204;-69
2023/10/18 05:52:37;;;;;;;3.67;3.38;;;7.70;99.90;;;;;;5017226;28;20211;-68
2023/10/18 05:55:08;;;;;;;3.88;3.28;;;7.70;99.90;;;;;;5018857;28;20592;-67
2023/10/18 05:57:37;;;;;;;3.67;3.38;;;7.70;99.90;;;;;;5019457;28;20278;-68
2023/10/18 06:00:16;;;;;;;3.75;3.47;;;7.80;99.90;;;;;;5018446;28;20389;-68
2023/10/18 06:02:43;;;;;;;4.07;3.20;;;7.80;99.90;;;;;;5017032;28;20879;-68
2023/10/18 06:05:13;;;;;;;3.70;3.40;;;7.80;99.90;;;;;;5018816;28;20782;-68
2023/10/18 06:07:41;;;;;;;3.53;3.22;;;7.90;99.90;;;;;;5014110;28;20219;-67
2023/10/18 06:10:16;;;;;;;3.42;3.22;;;7.90;99.90;;;;;;5015974;28;20204;-68
2023/10/18 06:12:46;;;;;;;3.63;3.38;;;8.00;99.90;;;;;;5014545;28;20763;-68
2023/10/18 06:15:14;;;;;;;3.70;3.40;;;8.00;99.90;;;;;;5016560;28;20203;-66
2023/10/18 06:17:47;;;;;;;3.45;3.15;;;8.00;99.90;;;;;;5018017;28;20934;-68
2023/10/18 06:20:24;;;;;;;3.25;3.05;;;8.10;99.90;;;;;;5014905;28;20218;-67
2023/10/18 06:22:53;;;;;;;3.45;3.25;;;8.10;99.90;;;;;;5015218;28;20207;-69
2023/10/18 06:25:26;;;;;;;3.72;3.42;;;8.20;99.90;;;;;;5016905;28;20734;-68
2023/10/18 06:27:54;;;;;;;3.60;3.33;;;8.20;99.90;;;;;;5018604;28;20997;-69
2023/10/18 06:30:24;;;;;;;3.45;3.25;;;8.50;99.90;;;;;;5017289;28;20286;-70
2023/10/18 06:32:51;;;;;;;3.90;3.30;;;8.90;99.90;;;;;;5016974;28;20216;-69
2023/10/18 06:35:26;;;;;;;3.92;3.35;;;9.40;99.90;;;;;;5018624;28;20231;-69
2023/10/18 06:37:54;;;;;;;3.40;3.13;;;9.70;99.90;;;;;;5019466;28;20890;-69
2023/10/18 06:40:22;;;;;;;4.00;3.70;;;9.70;99.90;;;;;;5016948;28;20739;-69
2023/10/18 06:42:51;;;;;;;3.70;3.40;;;9.60;99.90;;;;;;5022251;28;20202;-69
2023/10/18 06:45:19;;;;;;;3.40;3.10;;;9.50;99.90;;;;;;5016117;28;20625;-66
2023/10/18 06:47:46;;;;;;;4.03;3.63;;;9.40;99.90;;;;;;5015007;28;20761;-70
2023/10/18 06:50:13;;;;;;;3.42;3.22;;;9.30;99.90;;;;;;5016719;28;20285;-70
2023/10/18 06:52:44;;;;;;;3.80;3.50;;;9.30;99.90;;;;;;5015659;28;20910;-69
2023/10/18 06:55:15;;;;;;;3.85;3.55;;;9.40;99.90;;;;;;5016786;28;20707;-70
2023/10/18 06:57:45;;;;;;;3.55;3.35;;;9.40;99.90;;;;;;5016655;28;20281;-70
2023/10/18 07:00:15;;;;;;;3.65;3.35;;;9.60;99.90;;;;;;5017871;28;20204;-70
2023/10/18 07:02:44;;;;;;;4.63;3.45;;;9.80;99.90;;;;;;5013850;28;20203;-70
2023/10/18 07:05:11;;;;;;;3.10;2.80;;;9.90;99.90;;;;;;5014104;28;20249;-67
2023/10/18 07:07:38;;;;;;;3.83;3.53;;;10.00;99.90;;;;;;5016325;28;20692;-68
2023/10/18 07:10:20;;;;;;;3.38;3.13;;;10.10;99.90;;;;;;5015301;28;20212;-68
2023/10/18 07:12:51;;;;;;;3.50;3.20;;;10.10;99.90;;;;;;5026106;28;20200;-70
2023/10/18 07:15:22;;;;;;;3.00;2.80;;;10.00;99.90;;;;;;5019997;28;20635;-69
2023/10/18 07:17:51;;;;;;;3.10;2.80;;;10.00;99.90;;;;;;5019748;28;20315;-70
2023/10/18 07:20:20;;;;;;;3.20;2.90;;;9.90;99.90;;;;;;5015655;28;20403;-70
2023/10/18 07:22:54;;;;;;;3.22;2.92;;;9.90;99.90;;;;;;5018435;28;20200;-68
2023/10/18 07:25:27;;;;;;;3.08;2.85;;;9.80;99.90;;;;;;5020700;28;20208;-71
2023/10/18 07:27:55;;;;;;;3.28;3.00;;;9.80;99.90;;;;;;5022758;28;20223;-70
2023/10/18 07:30:36;;;;;;;3.67;3.33;;;9.70;99.90;;;;;;5023385;28;20581;-70
2023/10/18 07:33:09;;;;;;;3.05;2.83;;;9.70;99.90;;;;;;5027467;28;20226;-70
2023/10/18 07:35:37;;;;;;;4.38;3.28;;;9.60;99.90;;;;;;5020728;28;20222;-69
2023/10/18 07:38:04;;;;;;;3.55;3.25;;;9.60;99.90;;;;;;5021489;28;21156;-69
2023/10/18 07:40:36;;;;;;;4.07;3.33;;;9.70;99.90;;;;;;5022857;28;20205;-69
2023/10/18 07:43:05;;;;;;;3.80;3.50;;;9.70;99.90;;;;;;5023390;28;20302;-70
2023/10/18 07:45:32;;;;;;;3.78;3.17;;;9.80;99.90;;;;;;5023402;28;20677;-68
2023/10/18 07:47:59;;;;;;;3.70;3.38;;;9.90;99.90;;;;;;5023360;28;20223;-69
2023/10/18 07:50:41;;;;;;;3.63;3.33;;;10.00;99.90;;;;;;5025439;28;20239;-70
2023/10/18 07:53:11;;;;;;;3.50;3.30;;;10.00;99.90;;;;;;5021692;28;20207;-71
2023/10/18 07:55:41;;;;;;;3.40;3.20;;;10.10;99.90;;;;;;5024965;28;20811;-71
2023/10/18 07:58:22;;;;;;;3.70;3.40;;;10.30;99.90;;;;;;5027125;28;20625;-69
2023/10/18 08:03:30;;;;;;;4.53;3.45;;;10.50;99.90;;;;;;5019989;28;20806;-71
2023/10/18 08:05:59;;;;;;;4.35;3.40;;;10.50;99.90;;;;;;5023242;28;20654;-70
2023/10/18 08:08:26;;;;;;;3.83;3.53;;;10.40;99.90;;;;;;5030861;28;20331;-70
2023/10/18 08:10:55;;;;;;;3.25;2.97;;;10.40;99.90;;;;;;5023168;28;20237;-72
2023/10/18 08:13:26;;;;;;;3.85;3.38;;;10.30;99.90;;;;;;5021475;28;20204;-70
2023/10/18 08:15:54;;;;;;;3.72;3.38;;;10.30;99.90;;;;;;5021233;28;20810;-70
2023/10/18 08:18:39;;;;;;;3.53;3.22;;;10.30;99.90;;;;;;5019691;28;20215;-70
2023/10/18 08:21:07;;;;;;;4.43;4.03;;;10.30;99.90;;;;;;5019855;28;20195;-71
2023/10/18 08:23:38;;;;;;;3.20;3.00;;;10.40;99.90;;;;;;5020316;28;20211;-70
2023/10/18 08:26:07;;;;;;;3.53;3.22;;;10.50;99.90;;;;;;5020012;28;20317;-71
2023/10/18 08:28:39;;;;;;;3.92;3.25;;;10.50;99.90;;;;;;5024362;28;20211;-71
2023/10/18 08:31:16;;;;;;;4.50;3.33;;;10.40;99.90;;;;;;5018779;28;20206;-71
2023/10/18 08:33:43;;;;;;;3.47;3.17;;;10.60;99.90;;;;;;5021386;28;20196;-71
2023/10/18 08:36:13;;;;;;;4.70;3.60;;;10.70;99.90;;;;;;5019964;28;20624;-71
2023/10/18 08:38:42;;;;;;;3.83;3.38;;;10.90;99.90;;;;;;5021746;28;20254;-70
2023/10/18 08:41:15;;;;;;;3.97;3.67;;;11.00;99.90;;;;;;5018549;28;20207;-70
2023/10/18 08:43:58;;;;;;;3.92;3.53;;;11.30;99.90;;;;;;5023909;28;20195;-72
2023/10/18 08:46:26;;;;;;;3.92;3.63;;;11.80;99.90;;;;;;5022222;28;20292;-72
2023/10/18 08:48:56;;;;;;;3.67;3.30;;;12.40;99.90;;;;;;5023218;28;20215;-70
2023/10/18 08:51:27;;;;;;;3.92;3.47;;;12.40;99.90;;;;;;5022424;28;20204;-71
2023/10/18 08:53:56;;;;;;;4.07;3.78;;;12.20;99.90;;;;;;5029318;28;20377;-71
2023/10/18 08:56:29;;;;;;;3.75;3.45;;;12.00;99.90;;;;;;5033535;28;20286;-70
2023/10/18 08:58:58;;;;;;;3.67;3.38;;;11.80;99.90;;;;;;5029144;28;20852;-70
2023/10/18 09:01:26;;;;;;;3.80;3.40;;;11.80;99.90;;;;;;5033103;28;20295;-71
2023/10/18 09:03:52;;;;;;;3.60;3.30;;;11.70;99.90;;;;;;5026752;28;20805;-71
2023/10/18 09:06:30;;;;;;;3.47;3.28;;;11.70;99.90;;;;;;5037198;28;20994;-71
2023/10/18 09:09:04;;;;;;;5.22;3.42;;;11.70;99.90;;;;;;5019749;28;20802;-70
2023/10/18 09:11:34;;;;;;;4.30;3.53;;;11.80;99.90;;;;;;5018208;28;20207;-72
2023/10/18 09:14:07;;;;;;;3.50;3.20;;;11.90;99.90;;;;;;5018923;28;20232;-70
2023/10/18 09:16:38;;;;;;;4.57;3.88;;;12.00;99.90;;;;;;5021939;28;20187;-71
2023/10/18 09:19:06;;;;;;;4.10;3.70;;;12.10;99.90;;;;;;5025185;28;20638;-71
2023/10/18 09:24:15;;;;;;;4.25;3.85;;;12.00;99.90;;;;;;5013415;28;20258;-71
2023/10/18 09:26:45;;;;;;;3.90;3.60;;;12.10;99.90;;;;;;5020182;28;20227;-69
2023/10/18 09:29:12;;;;;;;4.05;3.60;;;12.20;99.90;;;;;;5015698;28;20207;-69
2023/10/18 09:31:54;;;;;;;3.80;3.50;;;12.20;99.90;;;;;;5018174;28;20409;-71
2023/10/18 09:34:23;;;;;;;3.95;3.55;;;12.20;99.90;;;;;;5020707;28;20227;-70
2023/10/18 09:36:56;;;;;;;3.50;3.20;;;12.10;99.90;;;;;;5023122;28;20210;-71
2023/10/18 09:39:24;;;;;;;4.65;3.55;;;12.00;99.90;;;;;;5022181;28;20852;-70
2023/10/18 09:41:53;;;;;;;4.22;3.78;;;11.90;99.90;;;;;;5017434;28;20261;-71
2023/10/18 09:44:20;;;;;;;3.83;3.53;;;11.90;99.90;;;;;;5020354;28;20682;-70
2023/10/18 09:46:49;;;;;;;4.13;3.70;;;11.90;99.90;;;;;;5039275;28;20294;-70
2023/10/18 09:49:23;;;;;;;3.97;3.58;;;11.80;99.90;;;;;;5021297;28;20206;-71
2023/10/18 09:51:54;;;;;;;3.92;3.63;;;11.80;99.90;;;;;;5019212;28;20200;-71
2023/10/18 09:54:22;;;;;;;4.10;3.70;;;11.80;99.90;;;;;;5021289;28;20202;-72
2023/10/18 09:56:55;;;;;;;4.22;3.38;;;11.70;99.90;;;;;;5022650;28;20614;-71
2023/10/18 09:59:30;;;;;;;3.40;3.10;;;11.70;99.90;;;;;;5017962;28;20208;-71
2023/10/18 10:02:07;;;;;;;3.80;3.30;;;11.80;99.90;;;;;;5017585;28;20812;-71
2023/10/18 10:04:36;;;;;;;3.60;3.30;;;11.90;99.90;;;;;;5017799;28;20326;-70
2023/10/18 10:09:50;;;;;;;3.60;3.30;;;12.20;99.90;;;;;;5019756;28;20216;-71
2023/10/18 10:12:22;;;;;;;4.05;3.60;;;12.30;99.90;;;;;;5017105;28;20199;-70
2023/10/18 10:14:51;;;;;;;4.72;3.97;;;12.40;99.90;;;;;;5023007;28;20285;-70
2023/10/18 10:17:21;;;;;;;5.45;4.13;;;12.50;99.90;;;;;;5017464;28;20211;-72
2023/10/18 10:19:51;;;;;;;4.22;3.92;;;12.80;99.90;;;;;;5017632;28;20230;-71
2023/10/18 10:22:23;;;;;;;4.00;3.60;;;13.00;99.90;;;;;;5022224;28;20554;-71
2023/10/18 10:24:59;;;;;;;6.78;3.67;;;13.10;99.90;;;;;;5020073;28;20203;-71
2023/10/18 10:27:41;;;;;;;5.50;3.20;;;12.90;99.90;;;;;;5021425;28;20218;-70
2023/10/18 10:30:19;;;;;;;4.30;3.90;;;12.80;99.90;;;;;;5015075;28;20208;-71
2023/10/18 10:32:47;;;;;;;3.90;3.60;;;12.90;99.90;;;;;;5022083;28;20196;-71
2023/10/18 10:35:16;;;;;;;3.45;3.15;;;13.10;99.90;;;;;;5018410;28;20289;-70
2023/10/18 10:37:47;;;;;;;3.80;3.50;;;13.50;99.90;;;;;;5018146;28;20215;-70
2023/10/18 10:40:35;;;;;;;3.83;3.50;;;13.70;99.90;;;;;;5014194;28;20323;-71
2023/10/18 10:43:08;;;;;;;4.40;3.50;;;14.00;99.90;;;;;;5014752;28;20747;-71
2023/10/18 10:45:38;;;;;;;3.97;3.58;;;14.10;99.90;;;;;;5015858;28;20196;-70
2023/10/18 10:48:31;;;;;;;5.13;4.13;;;14.10;99.90;;;;;;5020184;28;20309;-71
2023/10/18 10:51:06;;;;;;;4.00;3.60;;;14.10;99.90;;;;;;5021714;28;20222;-71
2023/10/18 10:53:35;;;;;;;4.10;3.70;;;13.90;99.90;;;;;;5018197;28;20294;-70
2023/10/18 10:56:16;;;;;;;3.50;3.17;;;13.70;99.90;;;;;;5024103;28;20203;-71
2023/10/18 10:58:54;;;;;;;4.78;3.67;;;13.60;99.90;;;;;;5023945;28;20227;-71
2023/10/18 11:01:39;;;;;;;3.50;3.20;;;13.70;99.90;;;;;;5016664;28;20207;-72
2023/10/18 11:04:14;;;;;;;4.25;3.75;;;13.90;99.90;;;;;;5012868;28;20218;-74
2023/10/18 11:06:43;;;;;;;3.47;3.17;;;14.20;99.90;;;;;;5027619;28;20207;-73
2023/10/18 11:09:15;;;;;;;3.97;3.42;;;14.60;99.90;;;;;;5024055;28;20273;-72
2023/10/18 11:11:45;;;;;;;4.20;3.55;;;14.50;99.90;;;;;;5021143;28;20235;-73
2023/10/18 11:14:18;;;;;;;3.20;2.78;;;14.20;99.90;;;;;;5017560;28;20207;-72
2023/10/18 11:16:46;;;;;;;3.70;3.40;;;14.00;99.90;;;;;;5025986;28;20200;-72
2023/10/18 11:19:15;;;;;;;3.60;3.10;;;13.90;99.90;;;;;;5023555;28;20253;-73
2023/10/18 11:21:44;;;;;;;4.03;2.85;;;13.80;99.90;;;;;;5022190;28;21554;-73
2023/10/18 11:24:13;;;;;;;3.72;3.10;;;13.70;99.90;;;;;;5022505;28;20926;-72
2023/10/18 11:26:41;;;;;;;4.25;3.35;;;13.70;99.90;;;;;;5025434;28;20215;-73
2023/10/18 11:29:08;;;;;;;3.42;3.22;;;13.70;99.90;;;;;;5020471;28;20219;-72
2023/10/18 11:31:42;;;;;;;4.18;3.28;;;13.80;99.90;;;;;;5022468;28;20207;-72
2023/10/18 11:34:14;;;;;;;3.22;2.92;;;13.80;99.90;;;;;;5020484;28;20230;-71
2023/10/18 11:36:43;;;;;;;2.78;2.58;;;13.70;99.90;;;;;;5023131;28;20768;-73
2023/10/18 11:39:18;;;;;;;4.70;3.00;;;13.70;99.90;;;;;;5014477;28;20212;-73
2023/10/18 11:41:48;;;;;;;3.13;2.75;;;13.60;99.90;;;;;;5025630;28;20197;-72
2023/10/18 11:44:28;;;;;;;2.80;2.60;;;13.60;99.90;;;;;;5027223;28;20235;-72
2023/10/18 11:47:02;;;;;;;3.60;3.00;;;13.70;99.90;;;;;;5024739;28;20227;-72
2023/10/18 11:49:36;;;;;;;2.95;2.75;;;13.80;99.90;;;;;;5021829;28;20195;-73
2023/10/18 11:52:04;;;;;;;2.88;2.67;;;13.90;99.90;;;;;;5022596;28;20211;-72
2023/10/18 11:54:32;;;;;;;3.40;3.10;;;13.90;99.90;;;;;;5021958;28;20202;-71
2023/10/18 11:56:59;;;;;;;2.75;2.55;;;13.90;99.90;;;;;;5016587;28;20326;-72
2023/10/18 11:59:28;;;;;;;2.95;2.75;;;13.70;99.90;;;;;;5021151;28;20282;-72
2023/10/18 12:01:59;;;;;;;2.90;2.70;;;13.60;99.90;;;;;;5026290;28;20296;-72
2023/10/18 12:04:29;;;;;;;3.25;2.88;;;13.30;99.90;;;;;;5018940;28;20220;-72
2023/10/18 12:06:57;;;;;;;3.20;2.85;;;13.20;99.90;;;;;;5019900;28;20240;-72
2023/10/18 12:09:27;;;;;;;2.65;2.45;;;13.10;99.90;;;;;;5019688;28;20269;-72
2023/10/18 12:11:54;;;;;;;3.13;2.83;;;13.10;99.90;;;;;;5021557;28;20346;-72
2023/10/18 12:14:23;;;;;;;2.70;2.50;;;13.20;99.90;;;;;;5014562;28;20291;-72
2023/10/18 12:16:52;;;;;;;2.67;2.47;;;13.20;99.90;;;;;;5022786;28;20207;-72
2023/10/18 12:19:21;;;;;;;3.65;2.85;;;13.30;99.90;;;;;;5020702;28;20223;-72
2023/10/18 12:21:59;;;;;;;2.63;2.40;;;13.30;99.90;;;;;;5020425;28;20207;-71
2023/10/18 12:24:28;;;;;;;3.20;2.90;;;13.20;99.90;;;;;;5021852;28;20195;-72
2023/10/18 12:26:55;;;;;;;3.15;2.92;;;13.00;99.90;;;;;;5023786;28;20299;-71
2023/10/18 12:29:27;;;;;;;3.60;2.88;;;12.80;99.90;;;;;;5019566;28;20219;-72
2023/10/18 12:32:18;;;;;;;3.78;3.00;;;12.80;99.90;;;;;;5024649;28;20694;-71
2023/10/18 12:34:50;;;;;;;4.45;3.63;;;12.70;99.90;;;;;;5021412;28;20204;-72
2023/10/18 12:37:18;;;;;;;4.03;2.85;;;12.60;99.90;;;;;;5026503;28;20319;-73
2023/10/18 12:39:47;;;;;;;5.25;3.42;;;12.50;99.90;;;;;;5022592;28;20196;-71
2023/10/18 12:42:19;;;;;;;3.63;3.33;;;12.40;99.90;;;;;;5020888;28;20631;-71
2023/10/18 12:44:47;;;;;;;4.15;3.20;;;12.30;99.90;;;;;;5021334;28;20207;-71
2023/10/18 12:47:19;;;;;;;4.15;3.72;;;12.20;99.90;;;;;;5028314;28;20219;-72
2023/10/18 12:49:50;;;;;;;3.85;3.53;;;12.10;99.90;;;;;;5019292;28;20234;-71
2023/10/18 12:55:28;;;;;;;3.38;3.08;;;12.00;99.90;;;;;;5017238;28;20210;-71
2023/10/18 12:57:52;;;;;;;3.20;3.00;;;12.00;99.90;;;;;;5021540;28;20900;-71
2023/10/18 13:00:23;;;;;;;3.05;2.85;;;12.00;99.90;;;;;;5018575;28;20203;-71
2023/10/18 13:05:43;;;;;;;2.90;2.60;;;11.90;99.90;;;;;;5021421;28;20224;-71
2023/10/18 13:08:24;;;;;;;2.75;2.55;;;11.90;99.90;;;;;;5019877;28;20243;-72
2023/10/18 13:13:37;;;;;;;3.33;3.03;;;11.90;99.90;;;;;;5024428;28;20207;-71
2023/10/18 13:16:04;;;;;;;3.03;2.83;;;11.90;99.90;;;;;;5020850;28;20345;-72
2023/10/18 13:18:31;;;;;;;2.60;2.40;;;11.90;99.90;;;;;;5021828;28;20295;-72
2023/10/18 13:21:07;;;;;;;2.97;2.78;;;11.90;99.90;;;;;;5019642;28;20256;-72
2023/10/18 13:23:34;;;;;;;2.80;2.60;;;11.90;99.90;;;;;;5021044;28;20196;-72
2023/10/18 13:26:01;;;;;;;2.53;2.33;;;12.00;99.90;;;;;;5024311;28;20295;-72
2023/10/18 13:28:34;;;;;;;2.30;2.08;;;12.10;99.90;;;;;;5021116;28;20224;-72
2023/10/18 13:31:06;;;;;;;2.88;2.67;;;12.20;99.90;;;;;;5020014;28;20204;-72
2023/10/18 13:33:34;;;;;;;5.10;3.13;;;12.20;99.90;;;;;;5021137;28;20319;-71